Time;durP1;ratioP1;P1;durP2;ratioP2;P2;SDS_P1;SDS_P2;PMS_P1;PMS_P2;Temp;Humidity;BMP_temperature;BMP_pressure;BME280_temperature;BME280_humidity;BME280_pressure;Samples;Min_cycle;Max_cycle;Signal;HPM_P1;HPM_P2
2022/03/28 00:01:14;;;;;;;;;46.33;35.33;;;;;16.07;34.95;102178.13;5057898;28;45341;-47
2022/03/28 00:03:39;;;;;;;;;45.33;33.33;;;;;15.98;34.81;102166.44;5057259;28;45440;-47
2022/03/28 00:06:07;;;;;;;;;35.33;33.00;;;;;15.87;34.71;102143.28;5058256;28;45365;-46
2022/03/28 00:08:33;;;;;;;;;44.67;32.67;;;;;15.98;34.92;102166.44;5057690;28;46356;-48
2022/03/28 00:10:59;;;;;;;;;46.00;33.33;;;;;15.96;35.31;102171.91;5057869;28;45188;-48
2022/03/28 00:13:24;;;;;;;;;49.67;36.33;;;;;15.94;35.14;102163.19;5057858;28;45400;-48
2022/03/28 00:15:50;;;;;;;;;51.00;36.00;;;;;15.93;35.39;102166.03;5058053;28;45171;-50
2022/03/28 00:18:15;;;;;;;;;50.67;36.67;;;;;15.90;35.29;102158.25;5057653;28;46855;-48
2022/03/28 00:20:40;;;;;;;;;19.33;12.00;;;;;15.88;35.37;102154.88;5058045;28;45544;-50
2022/03/28 00:23:06;;;;;;;;;52.00;37.00;;;;;15.84;35.43;102154.31;5057909;28;45373;-46
2022/03/28 00:25:33;;;;;;;;;35.33;27.67;;;;;15.82;35.54;102159.00;5057594;28;45575;-48
2022/03/28 00:27:58;;;;;;;;;40.67;34.00;;;;;15.70;35.91;102134.16;5056850;28;46466;-48
2022/03/28 00:30:24;;;;;;;;;45.67;33.00;;;;;15.79;35.91;102151.22;5057472;28;45386;-45
2022/03/28 00:32:49;;;;;;;;;41.67;34.67;;;;;15.78;36.05;102146.84;5057737;28;45486;-45
2022/03/28 00:35:16;;;;;;;;;46.00;37.00;;;;;15.78;36.00;102146.00;5058021;28;45198;-45
2022/03/28 00:37:42;;;;;;;;;44.00;35.33;;;;;15.70;36.22;102142.22;5057720;28;46192;-47
2022/03/28 00:40:09;;;;;;;;;49.33;35.67;;;;;15.71;36.56;102145.75;5057367;28;45238;-48
2022/03/28 00:42:37;;;;;;;;;46.25;35.50;;;;;15.68;36.45;102138.84;5057854;28;45470;-47
2022/03/28 00:45:03;;;;;;;;;43.67;33.67;;;;;15.63;36.75;102133.06;5057648;28;45313;-45
2022/03/28 00:47:30;;;;;;;;;48.00;38.00;;;;;15.63;36.89;102138.41;5057285;28;46636;-46
2022/03/28 00:49:55;;;;;;;;;52.75;35.00;;;;;15.57;37.24;102119.38;5057735;28;45329;-49
2022/03/28 00:52:21;;;;;;;;;44.67;34.33;;;;;15.60;37.32;102127.97;5057656;28;45558;-45
2022/03/28 00:54:46;;;;;;;;;43.67;34.67;;;;;15.56;37.55;102131.94;5039701;28;45424;-48
2022/03/28 00:57:12;;;;;;;;;36.33;35.00;;;;;15.56;37.64;102123.88;5057075;28;45513;-46
2022/03/28 00:59:37;;;;;;;;;50.00;37.67;;;;;15.54;37.68;102131.22;5057351;28;45381;-47
2022/03/28 01:02:03;;;;;;;;;41.67;32.33;;;;;15.50;37.91;102129.81;5057322;28;45293;-50
2022/03/28 01:04:29;;;;;;;;;45.33;32.00;;;;;15.51;38.09;102136.06;5057143;28;45365;-50
2022/03/28 01:06:55;;;;;;;;;43.33;36.00;;;;;15.43;38.30;102132.25;5056887;28;46269;-49
2022/03/28 01:09:20;;;;;;;;;37.67;32.67;;;;;15.42;38.81;102138.63;5056710;28;45326;-50
2022/03/28 01:11:46;;;;;;;;;42.00;32.33;;;;;15.30;39.06;102106.75;5055948;28;45310;-52
2022/03/28 01:14:11;;;;;;;;;43.00;35.00;;;;;15.37;39.65;102124.75;5057033;28;45484;-47
2022/03/28 01:19:23;;;;;;;;;38.00;31.50;;;;;15.30;40.17;102122.84;5057030;28;45433;-50
2022/03/28 01:21:49;;;;;;;;;32.67;24.67;;;;;15.28;40.30;102114.06;5056786;28;45310;-49
2022/03/28 01:24:15;;;;;;;;;40.33;33.00;;;;;15.26;40.40;102127.63;5057198;28;45317;-49
2022/03/28 01:26:40;;;;;;;;;35.33;31.33;;;;;15.23;40.35;102115.34;5056513;28;46906;-47
2022/03/28 01:29:06;;;;;;;;;41.33;33.67;;;;;15.21;40.50;102114.66;5056715;28;45369;-48
2022/03/28 01:31:32;;;;;;;;;36.33;29.00;;;;;15.18;40.85;102108.72;5056972;28;45406;-51
2022/03/28 01:33:57;;;;;;;;;37.75;35.00;;;;;15.04;40.63;102087.72;5056823;28;45735;-47
2022/03/28 01:36:28;;;;;;;;;36.33;33.00;;;;;15.14;40.63;102107.34;5056706;28;45293;-50
2022/03/28 01:38:54;;;;;;;;;46.00;33.25;;;;;15.11;40.83;102100.41;5056546;28;45500;-49
2022/03/28 01:41:19;;;;;;;;;25.00;20.67;;;;;15.04;41.48;102095.75;5055595;28;45423;-50
2022/03/28 01:43:44;;;;;;;;;42.00;31.00;;;;;15.07;41.71;102100.84;5056800;28;45415;-47
2022/03/28 01:46:10;;;;;;;;;44.33;34.33;;;;;15.05;42.01;102103.69;5056604;28;45409;-48
2022/03/28 01:48:35;;;;;;;;;42.75;36.00;;;;;14.98;42.03;102095.34;5056999;28;45250;-47
2022/03/28 01:51:00;;;;;;;;;44.33;33.67;;;;;14.95;42.17;102092.09;5056810;28;45371;-47
2022/03/28 01:53:26;;;;;;;;;42.67;34.00;;;;;14.94;42.79;102096.63;5056901;28;45345;-49
2022/03/28 01:55:51;;;;;;;;;37.33;28.33;;;;;14.92;43.10;102093.25;5056403;28;46645;-52
2022/03/28 01:58:17;;;;;;;;;42.00;30.67;;;;;14.91;42.77;102085.34;5056251;28;45479;-47
2022/03/28 02:00:42;;;;;;;;;51.00;35.33;;;;;14.89;43.02;102098.88;5056683;28;45409;-49
2022/03/28 02:03:07;;;;;;;;;49.75;35.00;;;;;14.82;43.33;102089.72;5056861;28;45168;-52
2022/03/28 02:05:33;;;;;;;;;43.67;36.00;;;;;14.83;43.14;102094.09;5056065;28;45869;-47
2022/03/28 02:07:59;;;;;;;;;42.00;33.00;;;;;14.80;43.57;102094.38;5056211;28;45456;-48
2022/03/28 02:10:25;;;;;;;;;50.00;37.00;;;;;14.65;44.25;102067.16;5056400;28;45496;-46
2022/03/28 02:12:51;;;;;;;;;42.25;35.75;;;;;14.72;44.50;102088.88;5056232;28;45246;-48
2022/03/28 02:15:18;;;;;;;;;46.75;35.25;;;;;14.69;44.61;102087.31;5055787;28;46050;-52
2022/03/28 02:17:44;;;;;;;;;49.25;36.75;;;;;14.62;44.54;102078.19;5055989;28;45598;-49
2022/03/28 02:20:11;;;;;;;;;56.00;37.50;;;;;14.64;45.07;102091.41;5056194;28;45389;-50
2022/03/28 02:22:38;;;;;;;;;55.00;39.00;;;;;14.63;45.21;102084.38;5056498;28;45392;-48
2022/03/28 02:25:05;;;;;;;;;43.50;35.00;;;;;14.61;45.39;102087.16;5055667;28;46198;-48
2022/03/28 02:27:31;;;;;;;;;50.00;37.25;;;;;14.58;45.88;102087.47;5055820;28;45531;-49
2022/03/28 02:29:57;;;;;;;;;41.00;35.00;;;;;14.54;45.99;102087.88;5038146;28;45404;-49
2022/03/28 02:32:22;;;;;;;;;51.25;37.75;;;;;14.51;46.22;102082.81;5055930;28;45411;-49
2022/03/28 02:34:48;;;;;;;;;46.00;36.25;;;;;14.50;46.43;102087.31;5055664;28;47024;-49
2022/03/28 02:37:14;;;;;;;;;51.75;37.75;;;;;14.48;46.75;102083.88;5055431;28;45455;-49
2022/03/28 02:39:39;;;;;;;;;43.50;34.50;;;;;14.36;46.92;102066.25;5054883;28;45432;-49
2022/03/28 02:42:05;;;;;;;;;46.25;34.50;;;;;14.45;46.61;102085.03;5055360;28;45323;-44
2022/03/28 02:44:30;;;;;;;;;54.75;37.25;;;;;14.42;47.42;102074.59;5055398;28;47309;-49
2022/03/28 02:46:56;;;;;;;;;43.25;36.75;;;;;14.41;47.77;102072.03;5055344;28;45366;-47
2022/03/28 02:49:22;;;;;;;;;45.00;35.50;;;;;14.40;47.60;102071.19;5055436;28;45505;-47
2022/03/28 02:51:48;;;;;;;;;44.50;35.25;;;;;14.36;48.01;102063.59;5056994;28;45483;-46
2022/03/28 02:54:13;;;;;;;;;52.25;37.75;;;;;14.36;48.04;102068.94;5058799;28;46027;-50
2022/03/28 02:56:38;;;;;;;;;47.00;31.50;;;;;14.29;48.14;102057.13;5059032;28;45370;-50
2022/03/28 02:59:04;;;;;;;;;52.75;38.75;;;;;14.25;48.71;102051.19;5058873;28;45365;-48
2022/03/28 03:01:29;;;;;;;;;52.00;37.25;;;;;14.27;48.29;102051.88;5059053;28;45344;-50
2022/03/28 03:03:55;;;;;;;;;50.75;37.00;;;;;14.24;49.29;102041.44;5058849;28;45960;-48
2022/03/28 03:06:20;;;;;;;;;42.00;35.00;;;;;14.26;49.19;102047.53;5058583;28;45306;-49
2022/03/28 03:08:46;;;;;;;;;48.50;35.75;;;;;14.25;49.18;102048.50;5058904;28;45391;-50
2022/03/28 03:11:11;;;;;;;;;48.50;36.75;;;;;14.25;49.23;102047.66;5059030;28;45394;-48
2022/03/28 03:13:37;;;;;;;;;46.50;37.25;;;;;14.16;49.38;102030.63;5058449;28;46311;-45
2022/03/28 03:16:04;;;;;;;;;57.25;40.25;;;;;14.22;49.89;102030.88;5058475;28;45399;-48
2022/03/28 03:18:30;;;;;;;;;53.75;41.25;;;;;14.22;50.26;102030.88;5058778;28;45455;-48
2022/03/28 03:20:55;;;;;;;;;53.50;37.75;;;;;14.21;50.55;102033.72;5058795;28;45776;-48
2022/03/28 03:23:20;;;;;;;;;50.50;36.00;;;;;14.22;50.13;102032.72;5058669;28;46116;-50
2022/03/28 03:25:46;;;;;;;;;50.50;35.50;;;;;14.23;50.48;102031.72;5040393;28;45399;-52
2022/03/28 03:28:11;;;;;;;;;52.75;39.25;;;;;14.21;50.38;102031.03;5058586;28;45582;-46
2022/03/28 03:30:37;;;;;;;;;61.25;40.00;;;;;14.18;50.70;102036.66;5059056;28;45356;-52
2022/03/28 03:33:02;;;;;;;;;50.00;35.75;;;;;14.17;50.36;102026.94;5058638;28;47222;-49
2022/03/28 03:35:27;;;;;;;;;57.25;37.25;;;;;14.16;51.06;102030.63;5058513;28;45252;-49
2022/03/28 03:37:53;;;;;;;;;50.50;38.75;;;;;14.14;51.15;102030.75;5058528;28;45385;-48
2022/03/28 03:40:18;;;;;;;;;55.00;38.00;;;;;14.12;50.97;102034.56;5059027;28;45378;-50
2022/03/28 03:42:44;;;;;;;;;47.50;37.25;;;;;14.12;51.32;102030.03;5057482;28;45357;-47
2022/03/28 03:45:10;;;;;;;;;50.00;38.25;;;;;14.10;51.61;102029.31;5058437;28;45364;-49
2022/03/28 03:47:36;;;;;;;;;49.50;37.00;;;;;14.12;51.73;102026.53;5058512;28;45529;-51
2022/03/28 03:50:03;;;;;;;;;58.50;41.50;;;;;14.11;51.27;102036.34;5058586;28;45487;-49
2022/03/28 03:52:30;;;;;;;;;51.75;41.50;;;;;14.11;51.68;102027.50;5058162;28;46400;-50
2022/03/28 03:54:55;;;;;;;;;54.25;42.25;;;;;14.09;51.65;102033.00;5058122;28;45376;-48
2022/03/28 03:57:21;;;;;;;;;61.75;42.00;;;;;14.08;51.67;102030.47;5058298;28;45402;-48
2022/03/28 03:59:46;;;;;;;;;54.50;41.25;;;;;13.96;51.88;102017.19;5058345;28;45317;-49
2022/03/28 04:02:12;;;;;;;;;47.50;38.00;;;;;14.04;52.33;102032.56;5057754;28;45610;-48
2022/03/28 04:04:37;;;;;;;;;50.75;37.75;;;;;14.01;52.51;102027.47;5057376;28;45361;-51
2022/03/28 04:07:03;;;;;;;;;57.25;41.00;;;;;13.97;52.42;102023.38;5058106;28;45369;-50
2022/03/28 04:09:28;;;;;;;;;48.75;37.25;;;;;13.97;52.39;102026.91;5058441;28;45886;-46
2022/03/28 04:11:53;;;;;;;;;56.25;42.00;;;;;13.97;52.83;102032.25;5057925;28;45936;-47
2022/03/28 04:14:19;;;;;;;;;55.75;39.50;;;;;13.95;53.08;102030.72;5057653;28;45395;-48
2022/03/28 04:16:44;;;;;;;;;56.25;40.50;;;;;13.92;52.53;102020.28;5057865;28;45218;-49
2022/03/28 04:19:10;;;;;;;;;59.50;43.50;;;;;13.93;53.42;102024.66;5058299;28;45199;-49
2022/03/28 04:21:35;;;;;;;;;56.50;42.75;;;;;13.90;53.33;102027.59;5057787;28;45461;-51
2022/03/28 04:24:00;;;;;;;;;51.75;38.75;;;;;13.89;53.34;102029.41;5057645;28;45313;-49
2022/03/28 04:26:26;;;;;;;;;58.25;42.25;;;;;13.88;53.51;102032.25;5058024;28;45412;-51
2022/03/28 04:28:51;;;;;;;;;53.50;41.00;;;;;13.86;53.72;102035.06;5057869;28;45380;-48
2022/03/28 04:31:17;;;;;;;;;54.25;40.75;;;;;13.71;53.74;102010.50;5057697;28;45947;-48
2022/03/28 04:33:42;;;;;;;;;55.25;42.00;;;;;13.76;53.59;102018.13;5057580;28;45345;-48
2022/03/28 04:36:08;;;;;;;;;54.75;41.50;;;;;13.84;53.58;102033.50;5057882;28;45293;-48
2022/03/28 04:38:34;;;;;;;;;50.75;37.00;;;;;13.71;54.18;102021.22;5058042;28;45337;-50
2022/03/28 04:40:59;;;;;;;;;53.50;39.50;;;;;13.79;53.87;102033.91;5057402;28;47082;-47
2022/03/28 04:43:25;;;;;;;;;53.50;38.25;;;;;13.77;54.00;102030.50;5057230;28;45392;-47
2022/03/28 04:45:50;;;;;;;;;59.50;44.00;;;;;13.77;54.01;102029.66;5057472;28;45461;-49
2022/03/28 04:48:15;;;;;;;;;57.25;43.50;;;;;13.71;54.43;102028.38;5057790;28;45464;-47
2022/03/28 04:50:41;;;;;;;;;62.00;41.00;;;;;13.69;54.42;102031.22;5057231;28;47161;-46
2022/03/28 04:53:06;;;;;;;;;59.00;41.00;;;;;13.66;54.47;102023.44;5057571;28;45777;-50
2022/03/28 04:55:32;;;;;;;;;55.75;38.75;;;;;13.61;54.59;102012.31;5057263;28;45254;-48
2022/03/28 04:57:58;;;;;;;;;54.25;42.00;;;;;13.50;55.02;101999.03;5057180;28;45310;-51
2022/03/28 05:00:24;;;;;;;;;53.75;42.25;;;;;13.60;54.92;102021.31;5038986;28;47122;-51
2022/03/28 05:02:49;;;;;;;;;60.50;41.75;;;;;13.58;54.72;102022.44;5056938;28;45318;-48
2022/03/28 05:05:15;;;;;;;;;51.75;39.25;;;;;13.57;55.15;102016.25;5057345;28;45361;-47
2022/03/28 05:07:40;;;;;;;;;63.00;40.00;;;;;13.58;55.14;102017.94;5057538;28;45552;-48
2022/03/28 05:10:07;;;;;;;;;60.00;45.50;;;;;13.56;54.48;102013.69;5057181;28;46276;-49
2022/03/28 05:12:33;;;;;;;;;63.50;45.75;;;;;13.52;54.55;102013.09;5057575;28;45415;-48
2022/03/28 05:14:59;;;;;;;;;61.00;41.00;;;;;13.46;54.23;102014.50;5057960;28;45451;-48
2022/03/28 05:17:29;;;;;;;;;61.25;44.50;;;;;13.44;54.56;102012.94;5058005;28;45404;-49
2022/03/28 05:19:55;;;;;;;;;54.00;40.50;;;;;13.41;54.10;102007.88;5057931;28;46361;-51
2022/03/28 05:22:22;;;;;;;;;52.00;41.00;;;;;13.27;54.68;101984.16;5057350;28;45340;-52
2022/03/28 05:24:49;;;;;;;;;58.50;41.75;;;;;13.39;55.37;102009.81;5056938;28;45476;-46
2022/03/28 05:27:15;;;;;;;;;56.75;41.75;;;;;13.25;54.97;101989.66;5057231;28;45517;-49
2022/03/28 05:29:42;;;;;;;;;62.00;46.00;;;;;13.35;55.33;102014.59;5057261;28;46338;-47
2022/03/28 05:32:08;;;;;;;;;55.50;44.75;;;;;13.37;54.39;102009.13;5057366;28;45346;-46
2022/03/28 05:34:34;;;;;;;;;52.75;43.00;;;;;13.35;54.85;102008.41;5057435;28;45335;-46
2022/03/28 05:37:05;;;;;;;;;56.50;44.75;;;;;13.31;55.07;101997.13;5057397;28;45282;-46
2022/03/28 05:39:33;;;;;;;;;57.50;45.00;;;;;13.29;55.38;102007.13;5056806;28;47286;-52
2022/03/28 05:41:59;;;;;;;;;55.75;43.50;;;;;13.31;55.64;102007.81;5056717;28;45459;-48
2022/03/28 05:44:25;;;;;;;;;54.25;42.75;;;;;13.22;55.64;101997.91;5056624;28;45347;-46
2022/03/28 05:46:51;;;;;;;;;62.25;45.25;;;;;13.35;55.24;102016.41;5057113;28;45349;-50
2022/03/28 05:49:19;;;;;;;;;66.75;44.75;;;;;13.36;55.55;102013.63;5055568;28;45314;-48
2022/03/28 05:51:45;;;;;;;;;62.75;44.00;;;;;13.40;54.98;102014.19;5056368;28;45423;-47
2022/03/28 05:54:10;;;;;;;;;61.75;42.75;;;;;13.41;55.90;102011.41;5056368;28;45369;-44
2022/03/28 05:56:36;;;;;;;;;64.75;41.00;;;;;13.45;55.73;102014.66;5056665;28;45323;-45
2022/03/28 05:59:02;;;;;;;;;64.75;46.00;;;;;13.36;55.07;101983.38;5055015;28;46137;-49
2022/03/28 06:01:28;;;;;;;;;55.00;43.00;;;;;13.49;55.56;102008.06;5038772;28;45366;-45
2022/03/28 06:03:54;;;;;;;;;58.25;44.00;;;;;13.51;54.98;102007.91;5056380;28;45531;-51
2022/03/28 06:06:19;;;;;;;;;66.25;45.50;;;;;13.56;55.41;102009.19;5056424;28;45393;-50
2022/03/28 06:08:44;;;;;;;;;61.00;45.25;;;;;13.61;55.60;102008.78;5056291;28;45686;-52
2022/03/28 06:11:10;;;;;;;;;57.75;45.00;;;;;13.60;55.16;101988.38;5056142;28;45436;-50
2022/03/28 06:13:36;;;;;;;;;57.75;43.50;;;;;13.74;55.48;102006.72;5056093;28;45353;-51
2022/03/28 06:16:03;;;;;;;;;59.75;46.00;;;;;13.77;55.44;102003.75;5055408;28;45558;-47
2022/03/28 06:18:29;;;;;;;;;62.00;45.75;;;;;13.81;55.23;102012.38;5054826;28;46319;-52
2022/03/28 06:20:54;;;;;;;;;58.75;42.75;;;;;13.85;55.18;102006.59;5055576;28;45321;-52
2022/03/28 06:23:20;;;;;;;;;62.00;43.50;;;;;13.92;54.79;102006.91;5054372;28;45458;-52
2022/03/28 06:25:45;;;;;;;;;61.75;45.75;;;;;13.94;54.89;101999.56;5054677;28;45414;-52
2022/03/28 06:28:12;;;;;;;;;67.25;44.25;;;;;14.02;54.71;101996.22;5053024;28;45705;-51
2022/03/28 06:30:38;;;;;;;;;55.00;43.25;;;;;14.06;53.58;101995.78;5053602;28;45374;-46
2022/03/28 06:33:03;;;;;;;;;61.50;42.75;;;;;14.09;54.51;101997.38;5053818;28;45274;-50
2022/03/28 06:35:29;;;;;;;;;62.75;44.25;;;;;14.14;54.45;101997.78;5055178;28;45402;-47
2022/03/28 06:37:55;;;;;;;;;55.25;41.75;;;;;14.17;53.89;101994.84;5053772;28;45349;-50
2022/03/28 06:40:21;;;;;;;;;60.00;46.00;;;;;14.20;53.82;102000.75;5052368;28;45818;-50
2022/03/28 06:42:47;;;;;;;;;64.75;48.50;;;;;14.21;53.09;101996.25;5052125;28;45536;-46
2022/03/28 06:45:13;;;;;;;;;65.00;48.50;;;;;14.21;53.81;102007.78;5052351;28;45539;-46
2022/03/28 06:47:39;;;;;;;;;59.25;45.25;;;;;14.21;53.44;102001.59;5052480;28;45921;-49
2022/03/28 06:50:06;;;;;;;;;58.50;43.50;;;;;14.16;52.92;101999.34;5052610;28;45563;-47
2022/03/28 06:52:35;;;;;;;;;68.25;48.00;;;;;14.13;52.80;101993.44;5052059;28;45532;-49
2022/03/28 06:55:02;;;;;;;;;61.50;46.50;;;;;14.08;54.36;101993.84;5052675;28;45548;-47
2022/03/28 06:57:27;;;;;;;;;67.50;49.75;;;;;14.09;54.11;101997.38;5052662;28;47100;-49
2022/03/28 06:59:53;;;;;;;;;65.25;47.25;;;;;14.10;52.96;101999.03;5051083;28;45433;-50
2022/03/28 07:02:19;;;;;;;;;64.50;48.75;;;;;14.10;54.43;101991.03;5052492;28;45428;-46
2022/03/28 07:04:44;;;;;;;;;66.50;48.75;;;;;14.10;54.44;101994.53;5052417;28;45426;-47
2022/03/28 07:07:10;;;;;;;;;67.75;47.00;;;;;14.14;54.75;101989.75;5052652;28;46260;-47
2022/03/28 07:09:36;;;;;;;;;64.25;46.50;;;;;14.19;53.10;101988.34;5052560;28;45538;-48
2022/03/28 07:12:03;;;;;;;;;63.75;48.00;;;;;14.27;53.39;101984.13;5052421;28;45457;-47
2022/03/28 07:14:29;;;;;;;;;65.25;50.25;;;;;14.36;54.11;101991.31;5051925;28;45526;-46
2022/03/28 07:16:55;;;;;;;;;60.25;45.50;;;;;14.39;52.96;101969.63;5052096;28;47217;-47
2022/03/28 07:19:20;;;;;;;;;62.50;47.75;;;;;14.52;53.35;101983.59;5051241;28;45358;-49
2022/03/28 07:21:46;;;;;;;;;64.75;49.00;;;;;14.63;53.24;101986.13;5052494;28;45463;-46
2022/03/28 07:24:12;;;;;;;;;69.00;50.50;;;;;14.75;52.66;101977.91;5052260;28;45717;-46
2022/03/28 07:26:37;;;;;;;;;65.25;50.25;;;;;14.85;53.00;101978.75;5051989;28;46506;-46
2022/03/28 07:29:04;;;;;;;;;66.75;50.00;;;;;14.97;52.86;101982.97;5052933;28;45496;-48
2022/03/28 07:31:30;;;;;;;;;66.50;46.25;;;;;15.01;52.42;101962.91;5053044;28;45512;-47
2022/03/28 07:34:29;;;;;;;;;65.00;50.00;;;;;15.29;52.20;101976.34;5053271;28;45356;-49
2022/03/28 07:36:42;;;;;;;;;65.00;46.75;;;;;15.46;51.78;101971.06;5052823;28;45956;-45
2022/03/28 07:39:07;;;;;;;;;64.00;48.00;;;;;15.96;50.98;101969.78;5054977;28;45418;-46
2022/03/28 07:41:32;;;;;;;;;62.00;47.00;;;;;16.92;48.94;101969.97;5055891;28;45841;-48
2022/03/28 07:43:58;;;;;;;;;67.50;48.50;;;;;17.86;46.96;101966.34;5055406;28;45466;-49
2022/03/28 07:46:23;;;;;;;;;62.00;48.75;;;;;18.12;45.56;101947.41;5037028;28;48264;-51
2022/03/28 07:48:48;;;;;;;;;64.75;46.50;;;;;18.14;45.25;101962.38;5055150;28;45443;-51
2022/03/28 07:51:14;;;;;;;;;63.00;46.25;;;;;17.93;45.85;101962.00;5054944;28;45600;-48
2022/03/28 07:53:39;;;;;;;;;65.25;48.25;;;;;17.81;46.20;101963.31;5055415;28;45396;-45
2022/03/28 07:56:05;;;;;;;;;64.50;48.25;;;;;17.77;46.09;101964.66;5055091;28;46555;-49
2022/03/28 07:58:30;;;;;;;;;58.75;45.50;;;;;17.74;46.39;101962.25;5053890;28;45397;-47
2022/03/28 08:00:56;;;;;;;;;61.75;46.25;;;;;17.72;46.30;101970.50;5055189;28;45636;-45
2022/03/28 08:03:21;;;;;;;;;60.25;46.75;;;;;17.78;46.45;101969.91;5055562;28;45444;-48
2022/03/28 08:05:46;;;;;;;;;63.50;46.25;;;;;17.82;46.59;101959.63;5055030;28;45988;-48
2022/03/28 08:08:12;;;;;;;;;64.00;49.25;;;;;17.91;46.18;101958.66;5055244;28;45404;-49
2022/03/28 08:10:37;;;;;;;;;66.50;49.25;;;;;17.97;46.16;101952.59;5054846;28;45335;-51
2022/03/28 08:13:03;;;;;;;;;65.25;45.75;;;;;18.10;45.73;101962.88;5054962;28;45611;-49
2022/03/28 08:15:30;;;;;;;;;61.25;45.75;;;;;18.29;45.59;101959.03;5054120;28;45475;-49
2022/03/28 08:17:59;;;;;;;;;66.25;47.75;;;;;18.94;44.36;101957.13;5054579;28;45558;-48
2022/03/28 08:20:24;;;;;;;;;64.00;46.25;;;;;20.35;41.96;101953.53;5054728;28;45552;-47
2022/03/28 08:22:49;;;;;;;;;66.00;48.25;;;;;21.50;39.78;101953.25;5054295;28;46321;-48
2022/03/28 08:25:16;;;;;;;;;61.67;46.00;;;;;22.38;38.43;101962.97;5054468;28;46221;-51
2022/03/28 08:27:42;;;;;;;;;56.33;43.33;;;;;23.21;35.99;101952.28;5054746;28;45397;-48
2022/03/28 08:30:08;;;;;;;;;55.67;44.67;;;;;23.61;35.17;101943.28;5054030;28;45419;-50
2022/03/28 08:32:34;;;;;;;;;61.33;44.33;;;;;23.18;35.74;101944.56;5054588;28;45492;-47
2022/03/28 08:34:59;;;;;;;;;57.33;43.33;;;;;23.00;35.70;101950.50;5054448;28;45550;-49
2022/03/28 08:37:27;;;;;;;;;58.33;45.00;;;;;24.09;35.31;101940.50;5054630;28;45493;-47
2022/03/28 08:39:55;;;;;;;;;58.00;45.67;;;;;25.15;32.89;101931.44;5054527;28;45574;-45
2022/03/28 08:42:22;;;;;;;;;55.67;43.00;;;;;26.11;31.37;101922.38;5054049;28;45397;-45
2022/03/28 08:44:47;;;;;;;;;58.00;44.00;;;;;26.85;29.81;101926.16;5054055;28;47092;-45
2022/03/28 08:47:18;;;;;;;;;60.33;44.67;;;;;27.52;29.34;101923.50;5053740;28;45405;-47
2022/03/28 08:49:45;;;;;;;;;61.67;48.00;;;;;28.12;28.40;101919.91;5053746;28;45490;-46
2022/03/28 08:52:11;;;;;;;;;53.33;43.00;;;;;28.58;28.28;101921.88;5051536;28;45424;-46
2022/03/28 08:54:36;;;;;;;;;60.00;43.33;;;;;28.75;28.91;101920.06;5053105;28;46046;-46
2022/03/28 08:57:02;;;;;;;;;58.67;45.00;;;;;28.85;27.17;101925.75;5054041;28;45314;-46
2022/03/28 08:59:27;;;;;;;;;49.00;40.67;;;;;29.17;25.67;101917.19;5054327;28;45472;-45
2022/03/28 09:01:52;;;;;;;;;58.00;42.67;;;;;29.42;26.24;101914.13;5053759;28;45435;-47
2022/03/28 09:04:18;;;;;;;;;54.33;43.00;;;;;29.54;25.79;101917.66;5053958;28;45990;-45
2022/03/28 09:06:45;;;;;;;;;53.67;44.33;;;;;29.74;25.04;101913.63;5053890;28;45851;-47
2022/03/28 09:09:13;;;;;;;;;57.00;44.67;;;;;29.65;24.70;101917.84;5053090;28;45453;-51
2022/03/28 09:11:45;;;;;;;;;57.33;41.67;;;;;29.51;24.54;101912.63;5054598;28;45600;-47
2022/03/28 09:14:27;;;;;;;;;56.67;43.67;;;;;29.35;26.11;101916.16;5053568;28;46097;-46
2022/03/28 09:17:04;;;;;;;;;60.50;45.00;;;;;29.16;26.06;101917.41;5053425;28;45510;-47
2022/03/28 09:19:46;;;;;;;;;58.33;45.67;;;;;29.30;25.70;101911.41;5053497;28;45417;-46
2022/03/28 09:22:16;;;;;;;;;56.33;39.00;;;;;29.51;24.80;101918.13;5053944;28;45440;-46
2022/03/28 09:24:42;;;;;;;;;52.00;41.00;;;;;29.64;24.90;101905.22;5052927;28;45452;-46
2022/03/28 09:27:19;;;;;;;;;50.00;38.00;;;;;29.58;23.85;101907.03;5053286;28;45555;-45
2022/03/28 09:30:10;;;;;;;;;49.67;37.67;;;;;29.66;24.55;101906.63;5053511;28;46457;-46
2022/03/28 09:32:52;;;;;;;;;52.33;41.00;;;;;29.69;23.94;101902.56;5053957;28;45468;-47
2022/03/28 09:35:22;;;;;;;;;60.67;44.67;;;;;29.72;23.60;101902.91;5054008;28;46474;-46
2022/03/28 09:38:09;;;;;;;;;55.33;43.67;;;;;29.92;24.68;101909.81;5053772;28;45539;-47
2022/03/28 09:40:39;;;;;;;;;54.33;41.67;;;;;30.45;24.06;101903.88;5055109;28;45444;-45
2022/03/28 09:43:17;;;;;;;;;52.67;41.33;;;;;30.87;22.74;101900.66;5056311;28;45479;-45
2022/03/28 09:45:56;;;;;;;;;45.25;38.75;;;;;31.20;24.11;101896.94;5056017;28;46325;-46
2022/03/28 09:48:24;;;;;;;;;52.00;40.00;;;;;31.94;21.09;101888.16;5056135;28;45410;-45
2022/03/28 09:50:57;;;;;;;;;55.50;41.00;;;;;33.38;21.93;101892.56;5056251;28;45408;-49
2022/03/28 09:53:27;;;;;;;;;40.50;32.50;;;;;35.11;17.77;101892.47;5056307;28;45318;-49
2022/03/28 09:55:56;;;;;;;;;52.75;42.00;;;;;36.63;18.11;101886.03;5055860;28;47226;-48
2022/03/28 09:58:48;;;;;;;;;50.75;37.00;;;;;37.47;16.70;101885.53;5056041;28;45370;-44
2022/03/28 10:01:15;;;;;;;;;41.80;32.80;;;;;38.26;16.52;101889.16;5054867;28;45482;-50
2022/03/28 10:03:43;;;;;;;;;45.75;36.50;;;;;38.50;15.90;101886.25;5056489;28;45353;-48
2022/03/28 10:06:08;;;;;;;;;51.50;36.00;;;;;38.67;17.21;101880.88;5055416;28;46093;-48
2022/03/28 10:08:35;;;;;;;;;48.75;38.50;;;;;38.58;14.50;101876.38;5055690;28;45310;-50
2022/03/28 10:11:02;;;;;;;;;48.00;35.60;;;;;39.28;13.44;101859.31;5055805;28;45341;-51
2022/03/28 10:13:30;;;;;;;;;40.00;32.40;;;;;39.90;14.11;101858.63;5056126;28;45410;-46
2022/03/28 10:15:59;;;;;;;;;43.80;34.60;;;;;40.51;13.33;101856.16;5055443;28;47161;-48
2022/03/28 10:18:32;;;;;;;;;47.40;37.40;;;;;40.79;14.36;101851.16;5055492;28;45384;-49
2022/03/28 10:21:05;;;;;;;;;40.80;34.80;;;;;40.69;13.52;101851.47;5055760;28;45330;-47
2022/03/28 10:23:36;;;;;;;;;44.80;35.20;;;;;40.73;14.53;101841.31;5056072;28;45333;-49
2022/03/28 10:26:07;;;;;;;;;41.80;32.20;;;;;40.97;12.54;101835.31;5055155;28;45392;-48
2022/03/28 10:28:34;;;;;;;;;43.20;32.20;;;;;41.25;11.31;101841.38;5055445;28;45393;-47
2022/03/28 10:31:12;;;;;;;;;43.00;32.60;;;;;41.33;13.01;101840.56;5055873;28;45795;-47
2022/03/28 10:33:51;;;;;;;;;32.00;29.00;;;;;41.16;13.04;101832.19;5055672;28;45789;-49
2022/03/28 10:36:28;;;;;;;;;33.40;30.40;;;;;41.27;13.02;101831.53;5020242;28;46208;-48
2022/03/28 10:38:57;;;;;;;;;34.00;30.60;;;;;41.23;11.32;101819.38;5055308;28;45478;-51
2022/03/28 10:41:25;;;;;;;;;34.40;29.00;;;;;41.17;12.37;101815.09;5055612;28;45459;-51
2022/03/28 10:43:51;;;;;;;;;40.60;30.80;;;;;41.08;11.76;101794.75;5055749;28;45181;-50
2022/03/28 10:46:18;;;;;;;;;40.25;32.00;;;;;40.92;12.53;101813.09;5055068;28;45286;-51
2022/03/28 10:49:07;;;;;;;;;30.60;28.20;;;;;40.85;12.19;101803.25;5055327;28;45467;-52
2022/03/28 10:51:33;;;;;;;;;31.80;28.80;;;;;41.02;12.63;101798.88;5055036;28;45813;-48
2022/03/28 10:54:00;;;;;;;;;34.25;30.00;;;;;40.85;11.30;101794.06;5055473;28;45479;-53
2022/03/28 10:56:30;;;;;;;;;22.80;21.80;;;;;40.98;11.05;101787.53;5055286;28;45238;-50
2022/03/28 10:58:57;;;;;;;;;33.00;29.40;;;;;40.91;11.25;101789.94;5037176;28;45368;-50
2022/03/28 11:01:46;;;;;;;;;31.60;25.60;;;;;40.93;12.50;101786.84;5055031;28;45378;-50
2022/03/28 11:04:22;;;;;;;;;24.80;20.80;;;;;40.69;11.66;101787.31;5055130;28;45440;-50
2022/03/28 11:07:01;;;;;;;;;29.00;27.00;;;;;40.67;11.44;101773.72;5054908;28;46110;-51
2022/03/28 11:09:39;;;;;;;;;30.60;26.80;;;;;40.39;11.47;101773.13;5036972;28;45495;-49
2022/03/28 11:12:11;;;;;;;;;33.80;25.60;;;;;40.24;11.00;101770.78;5055465;28;45747;-51